Kekaha, HI

3:44 PM HST on March 01, 2015 (GMT -1000)
Wheeler Army Air Field | Change Station
CLOSE
Current Station
Airport
Location: Wheeler AAF,
Elevation: 837 ft
Nearby Weather Stations
Active Advisory: High Surf Advisory

Elev 837 ft 21.48 °N, 158.04 °W | Updated 46 minutes ago

Scattered Clouds
Scattered Clouds
77 °F
Feels Like 77 °F
N
15
Wind Variable Wind from NE
Gusts 17 mph

Today
High -- | Low -- °F
--% Chance of Precip.
Yesterday
High -- | Low -- °F
Precip. -- in
6:59 AM 6:42 PM
Waxing Gibbous, 88% visible
Pressure 29.94 in
Visibility 10.0 miles
Clouds Scattered Clouds 3200 ft
Dew Point 63 °F
Humidity 63%
Rainfall 0.00 in
Snow Depth Not available.
UV 5 out of 12
Pollen Not available.
Air Quality Not available.
Flu Activity Not available.
METAR PHHI 020058Z AUTO 04013G15KT 10SM SCT032 25/17 A2996 RMK AO2 SLP137 T02490174 $

More Conditions Fewer Conditions

Pressure 29.94 in
Visibility 10.0 miles
Clouds Scattered Clouds 3200 ft
Dew Point 63 °F
Humidity 63%
Rainfall 0.00 in
Snow Depth Not available.
UV 5 out of 12
Pollen Not available.
Air Quality Not available.
Flu Activity Not available.
METAR PHHI 020058Z AUTO 04013G15KT 10SM SCT032 25/17 A2996 RMK AO2 SLP137 T02490174 $

More Conditions Fewer Conditions

10-Day Weather Forecast

Almanac

Astronomy

Mar. 01, 2015 Rise Set
Actual Time
Civil Twilight
Nautical Twilight
Astronomical Twilight
Moon
Length of Visible Light
Length of Day
Tomorrow will be .
, % of the Moon is Illuminated

Today's Extremes

State Highs State Lows

Community

WunderPhotos

Upload Photos

1,801,677 photos uploaded!

WunderBlogs® & News

Nearby

Air Quality

  Air Quality AQ Index Pollutant
Not available.

Snow Depth

Station Depth Elevation

Earthquake Activity

City Distance Mag. Time & Date
Minimum magnitude displayed is 2.5.

Coastal Water Temperatures

Place Temperature

Nearby Weather Stations

High Surf Advisory
Statement as of 3:05 PM HST on March 01, 2015

... High surf advisory in effect from midnight tonight to midnight
HST Monday night...

The National Weather Service in Honolulu has issued a high surf
advisory... which is in effect from midnight tonight to midnight
HST Monday night.

* Surf... 10 to 15 feet.

* Timing... midnight Sunday night through midnight Monday night.

* Impacts... moderate... expect strong breaking waves... shore
break... and strong currents making swimming dangerous.

Precautionary/preparedness actions...

These conditions mean that only highly experienced persons should
enter the water along the shorelines affected by this high surf.
Always heed lifeguard advice and know your limits. When in
doubt... do not go out.


Donaldson